Terminal Aerodrome Forecast
Issued by NWS

Home | Current Version | Previous Version | Text Only | Print | Product List | Glossary On
Versions: 1 2 3 4 5 6 7 8 9 10 11 12 13 14 15 16 17 18 19 20 21 22 23 24 25 26 27 28 29 30 31 32 33 34 35 36 37
000
FTUS43 KGRB 021100
TAFRHI
TAF
KRHI 021126Z 0212/0312 28006KT P6SM SKC
      TEMPO 0212/0213 BKN030
     FM022200 19004KT P6SM BKN150
     FM030400 18006KT P6SM BKN080
     FM031000 15007KT P6SM -SN BKN035 OVC060
      TEMPO 0311/0312 3SM -SN OVC015=

USA.gov is the U.S. government's official web portal to all federal, state and local government web resources and services.